Timeline UpdatesTrip UpdatesNews PostsPvt PostsTravel TipsAdmin PostsConv PostsFollowed PostsChat RequestsBlog PostsPNR Posts

Disclaimer
Search
 
 
Sun Apr 20, 2014 07:12:42 ISTHomeTrainsΣChainsAtlasPNRForumGalleryNewsFAQTripsMembersLoginFeedback
No Recent News for this Train
Other Trains in the News **new
Latest...
.
Tue Jan 28, 2014 (10:42PM)
⇐ Return Journey: Train# 12289

12290/Nagpur - Mumbai CST Duronto Express

Dec 09 2013 (10:03PM)
Change Departure Station:
Change Arrival Station:
Post a Train Travel TipPost a Train Travel Tip **new
Post a Comment/Question/Picture/VideoPost a Comment/Question/Picture/Video
Inaugural Run
Mon Nov 23, 2009
Pantry/Catering
✕ NO Pantry Car
✕ NO Catering
RSA - Rake Sharing
No RSA. Hybrid LHB Rake.
Rake/Coach Composition
LOCO-SLR-AB1-H1-A1-A2-A3-B1-B2-B3-B4-S1-S2-S3-S4-S5-S6-S7-S8-SLR
Loco
WAP-7 of Ajni shed (C.R.) [Nagpur-Igatpuri] WCAM-2/2P/3 of Kalyan shed...
Read more...
(C.R.) [Igatpuri-Mumbai].
News    PNR    Forum    Time-Table    Availability    Fare Chart    Map    Arr/Dep History    Trips    Gallery    ΣChains    X/O    Timeline    
Travel Time: 11h 15m    2 halts    Distance: 835 km    Avg Speed: 74 km/hr
Type: Duronto
Zone: CR/Central
Departs @ 20:40 (Avg 1m late)
Platform# 8
SMTWTFS
Nagpur Junction/NGP 
Arrives @ 07:55 +1 night (Avg 24m late)
Platform# ???
SMTWTFS
Mumbai CST/CSTM 

2 halts. 122 intermediate Stations between Nagpur Junction and Mumbai CST

Hide intermediate Stations  Show Old Time-Table

#CodeStation NameX/OArrivesAvgDepartsAvgHaltPFDay#KmSpeedElevZoneAddress
1NGP»Nagpur Junction (9)»  -20:40+1810.081314mCRNagpur 440001, Maharashtra
1.1MIBNagpur Moti Bagh (1)  20:41-20:41-  10.8 81309mCRNagpur, Maharashtra
1.2AJNIAjni (3)X  20:42-20:42-  13.0 81310mCRNagpur 440003, Maharashtra
1.3KRIKhapri (2)X  20:49-20:49-  112.3 81312mCRNagpur, Maharashtra
1.4GMGGumgaon (2)X  20:54-20:54-  118.9 81302mCRNagpur, Maharashtra
1.5BTBRButi Bori (4)  21:00-21:00-  127.6 81269mCRButi Bori, Maharashtra
1.6BOKBorkhediX  21:06-21:06-  135.4 81268mCRWardha, Maharashtra
1.7SNISindi (2)  21:15-21:15-  146.9 81258mCRWardha, Maharashtra
1.8TGPTuljapur (2)  21:21-21:21-  154.8 81259mCRTuljapur, Maharashtra
1.9SLORSeloo RoadO  21:28-21:28-  164.9 81256mCRMSH3, Maharashtra
1.10VADRWarud  21:34-21:34-  172.8 81261mCRSewagram, Maharashtra
1.11SEGMSewagram Junction (5)  21:36-21:36-  176.2 81264mCRWardha, Maharashtra
1.12WRWardha JunctionO  21:38-21:38-  178.9 81289mCRWardha 442001, Maharashtra
1.13DAEDahegaon  21:48-21:48-  192.7 81275mCRMumbai Hwy, Maharashtra
1.14KAOTKaotha  21:55-21:55-  1101.7 81283mCRPulgaon, Maharashtra
1.15PLOPulgaon Junction (3)X  22:00-22:00-  1108.4 81273mCRPulgaon, Maharashtra
1.16TLNTalni  22:07-22:07-  1118.1 81277mCRPulgaon, Maharashtra
1.17DMNDhamangaon (2)  22:15-22:15-  1128.4 81300mCRDhamangaon, Maharashtra
1.18DIPDiporeX  22:22-22:22-  1138.6 81322mCRState Highway 243, Maharashtra
1.19CNDChandur (2)X  22:27-22:27-  1145.0 81331mCRAmravati Distt, Maharashtra
1.20MLRMalkhedX  22:37-22:37-  1158.1 81342mCRLalkhed, Maharashtra
1.21TMTTimtala  22:42-22:42-  1165.4 81350mCRAmravati, Maharashtra
1.22BDBadnera Junction (4)  22:48-22:48-  1173.8 81335mCRBadnera (Amravati) 444701, Maharashtra
1.23TKITakliX  22:55-22:55-  1182.3 81331mCRBadnera, Maharashtra
1.24KUMKuramX  23:00-23:00-  1190.0 81308mCRAkola, Maharashtra
1.25MNDAManduraX  23:05-23:05-  1195.7 81292mCRMurtizapur, Maharashtra
1.26MANAMana (2)  23:10-23:10-  1203.4 81294mCRMANA dist Akola, Maharashtra
1.27MZRMurtizapur (3)  23:19-23:19-  1215.6 81303mCRMurtajapur, Maharashtra
1.28KTPKatepurnaO  23:27-23:27-  1225.9 81292mCRNational Highway 6, Maharashtra
1.29BGNBorgaon  23:33-23:33-  1234.7 81294mCRAkola, Maharashtra
1.30YADYeulkhed  23:42-23:42-  1245.5 81297mCRAkola, Maharashtra
1.31AKAkola Junction (7)  23:47-23:47-  1252.8 81284mCRAkola-444001, Maharashtra
1.32GAOGaigaon (2)  23:56-23:56-  1265.0 81301mCRAkola, Maharashtra
1.33PSParas (2)  00:02-00:02-  2272.7 81281mCRAkola, Maharashtra
1.34NGZS K Nagjihari (2)X  00:08-00:08-  2282.1 81274mCRDist. Akola, Maharashtra
1.35SEGShegaon (2)X  00:14-00:14-  2290.0 81276mCRShegaon 444203, Maharashtra
1.36JMJalamb Junction (3)  00:23-00:23-  2302.3 81259mCRJalamb, Maharashtra
1.37NNNandura  00:33-00:33-  2314.5 81267mCRNandura, Maharashtra
1.38KJLKhumgaon Burti  00:38-00:38-  2322.0 81253mCRBuldhana, Maharashtra
1.39BISBiswa Bridge  00:43-00:43-  2328.3 81252mCRBuldhana, Maharashtra
1.40WADOWadoda  00:47-00:47-  2334.4 81252mCRNH 6, Maharashtra
1.41MKUMalkapur (2)  00:53-00:53-  2342.5 81252mCRMalkapur, Maharashtra
1.42KMKDKhamkhed  01:00-01:00-  2351.1 81252mCRMalkapur, Maharashtra
1.43KLHDKolhadi  01:04-01:04-  2357.6 81278mCRMalkapur, Maharashtra
1.44BDWDBodwad  01:08-01:08-  2362.0 81294mCRBodwad, Maharashtra
1.45ACGAchegaon  01:16-01:16-  2374.0 81234mCRVarangaon, Maharashtra
1.46VNAVarangaonO  01:21-01:21-  2380.0 81220mCRVarangaon, Maharashtra
2BSLBhusaval Junction (8)XT01:30+3:2401:40+4:5210m32392.382208mCRBhusaval 425201, Maharashtra
2.1BDIBhadli (2)XO  01:49-01:49-  2404.9 82211mCRBhadli, Maharashtra
2.2TRWTarsod  01:54-01:54-  2411.7 82206mCRAsoda - Tarsod Road, Maharashtra
2.3JLJalgaon Junction (4)X  01:58-01:58-  2416.5 82213mCRJalgaon 425001, Maharashtra
2.4SSShirsoli (2)  02:06-02:06-  2428.2 82211mCRShirsoli, Maharashtra
2.5MWDMhasavad (3)X  02:13-02:13-  2437.5 82220mCRMhasavad, Maharashtra
2.6MYJMaheji (2)X  02:22-02:22-  2449.4 82247mCRJalgaon, Maharashtra
2.7PHQPardhande (2)  02:27-02:27-  2456.7 82243mCRPardhande, Maharashtra
2.8PCPachora Junction (4)X  02:33-02:33-  2464.1 82264mCRPachora 424201, Maharashtra
2.9GAAGalan (2)O  02:40-02:40-  2474.6 82282mCRGalan, Maharashtra
2.10NGDNagardevla (2)  02:46-02:46-  2483.1 82280mCRNagardevla, Maharashtra
2.11KJKajgaon (3)O  02:51-02:51-  2489.8 82297mCRKajgaon, Maharashtra
2.12VGLVaghli (2)X  02:58-02:58-  2499.6 82331mCRVaghli, Maharashtra
2.13CSNChalisgaon Junction (3)  03:05-03:05-  2509.0 82352mCRChalisgaon 424101, Maharashtra
2.14HPRHirapur (2)X  03:11-03:11-  2516.8 82373mCRHirapur, Maharashtra
2.15RHNERohini (2)  03:18-03:18-  2525.9 82422mCRRohini, Maharashtra
2.16NINaydongri (2)X  03:21-03:21-  2530.5 82427mCRNaydongri, Maharashtra
2.17PKEPimpar Khed (2)X  03:28-03:28-  2540.3 82462mCRPimpar Khed, Maharashtra
2.18NGNNandgaon (3)  03:36-03:36-  2551.2 82476mCRNandgaon, Maharashtra
2.19PJNPanjhan (2)XO  03:41-03:41-  2557.6 82514mCRPanjhan, Maharashtra
2.20HSLHisvahal (2)X  03:45-03:45-  2563.1 82540mCRHisvahal, Maharashtra
2.21PNVPanevadi (2)  03:51-03:51-  2570.8 82561mCRPanevadi, Maharashtra
2.22MMRManmad Junction (6)X  03:55-03:55-  2576.5 82580mCRManmad 423104, Maharashtra
2.23SUMSummit (2)  04:04-04:04-  2588.9 82632mCRSummit, Maharashtra
2.24LSLasalgaon (3)X  04:13-04:13-  2601.0 82592mCRLasalgaon, Maharashtra
2.25UGNUgaon (2)X  04:20-04:20-  2610.9 82568mCRUgaon, Maharashtra
2.26NRNiphad (3)  04:25-04:25-  2617.9 82550mCRNashik, Maharashtra
2.27KBSNKasbe Sukene (3)X  04:29-04:29-  2623.9 82548mCRKasbe Sukene, Maharashtra
2.28KWKhervadi (2)  04:34-04:34-  2630.7 82553mCRKherwadi, Maharashtra
2.29ODHAOdha (2)X  04:39-04:39-  2637.7 82571mCRDist. Nashik, Maharashtra
2.30NKNasik Road (3)  04:48-04:48-  2649.3 82563mCRNashik 422101, Maharashtra
2.31DVLDevlali (3)  04:52-04:52-  2655.0 82561mCRDist. Nashik 422401, Maharashtra
2.32LTLahavit (1)  04:58-04:58-  2662.6 82587mCRWadhiware, Maharashtra
2.33AVAsvali (2)  05:07-05:07-  2675.0 82578mCRAsvali, Maharashtra
2.34PIPadli (1)  05:13-05:13-  2683.5 82591mCRNational Highway 3, Maharashtra
2.35GOGhoti (2)  05:19-05:19-  2691.8 82581mCRGhoti, Maharashtra
3IGPIgatpuri (4)05:25+3:4305:40+3:3815m--2700.060589mCRIgatpuri 422403, Maharashtra
3.1TGR2Block & Catch Siding Cabin 2  05:47-05:47-  2707.0 60473mCRNational Highway 3, Maharashtra
3.2TGR3Block & Catch Siding Cabin 3  05:51-05:51-  2710.6 60365mCRNH-3, Maharashtra
3.3KSRAKasara (4)  05:54-05:54-  2714.3 60290mCRDist. Thane 421602, Maharashtra
3.4OMBOombermali  06:01-06:01-  2721.1 60248mCROombermali, Maharashtra
3.5KEKhardi (2)  06:08-06:08-  2727.7 60232mCRKhardi, Maharashtra
3.6THSThansit  06:14-06:14-  2733.9 60184mCRNational Highway 3, Maharashtra
3.7ATGAtgaon (2)  06:20-06:20-  2739.8 60147mCRAtgaon, Maharashtra
3.8ASOAsangaon (3)  06:30-06:30-  2749.5 6077mCRDist. Thane, Maharashtra
3.9VSDVasind (2)X  06:36-06:36-  2755.5 6032mCRVasind, Maharashtra
3.10KDVKhadavli (3)X  06:43-06:43-  2763.1 6023mCRKhadavli, Maharashtra
3.11TLATitwala (3)  06:51-06:51-  2770.7 6017mCRTitwala, Maharashtra
3.12ABYAmbivli (2)  06:56-06:56-  2775.5 6022mCRAmbivli, Maharashtra
3.13SHADShahad (2)X  06:59-06:59-  2778.5 6012mCRUlhasnagar, Maharashtra
3.14KYNKalyan Junction (8)X  07:02-07:02-  2781.7 6010mCRKalyan 421301, Maharashtra
3.15THKThakurli (2)  07:05-07:05-  2785.3 6014mCRThakurli, Maharashtra
3.16DIDombivli (5)  07:07-07:07-  2786.7 6011mCRDombivli, Maharashtra
3.17KOPRKopar (4)X  07:08-07:08-  2788.0 600mCRKopar, Maharashtra
3.18DIVADiva Junction (6)  07:12-07:12-  2792.4 603mCRJn Pt TNA/PNVL/KYN/BSR Diva, Maharashtra
3.19MBQMumbra (2)X  07:15-07:15-  2795.0 608mCRMumbra, Maharashtra
3.20KLVAKalva (2)  07:20-07:20-  2799.4 605mCRKalva, Maharashtra
3.21TNAThane (10)  07:22-07:22-  2802.0 6010mCRThane, Maharashtra
3.22MLNDMulund (4)  07:25-07:25-  2804.5 6012mCRMumbai, Maharashtra
3.23NHUNahur (2)  07:27-07:27-  2806.7 605mCRMumbai, Maharashtra
3.24BNDBhandup (4)XO  07:29-07:29-  2808.4 607mCRMumbai 400078, Maharashtra
3.25KJMGKanjur Marg (2)  07:30-07:30-  2810.2 605mCRMumbai, Maharashtra
3.26VKVikhroli (4)X  07:32-07:32-  2812.1 6010mCRMumbai, Maharashtra
3.27GCGhatkopar (4)  07:36-07:36-  2815.8 6011mCRMumbai 400086, Maharashtra
3.28VVHVidyavihar (2)  07:37-07:37-  2817.1 608mCRMumbai, Maharashtra
3.29LTTMumbai Lokmanya Tilak Terminus (5)  07:39-07:39-  2818.4 607mCRMumbai, Maharashtra
3.30CLAKurla Junction (8)  07:40-07:40-  2819.5 608mCRMumbai, Maharashtra
3.31SINMumbai Sion (4)  07:42-07:42-  2822.1 607mCRMumbai, Maharashtra
3.32MTNMumbai Matunga (4)  07:45-07:45-  2824.8 607mCRMumbai, Maharashtra
3.33DRMumbai Dadar Central (8)  07:46-07:46-  2826.2 607mCRMumbai 400014, Maharashtra
3.34PRMumbai Parel (4)  07:47-07:47-  2827.2 606mCRMumbai, Maharashtra
3.35CRDMumbai Currey Road (2)  07:49-07:49-  2829.0 605mCRMumbai, Maharashtra
3.36CHGMumbai Chinchpokli (2)O  07:50-07:50-  2829.8 606mCRMumbai, Maharashtra
3.37BYByculla (4)  07:51-07:51-  2831.0 609mCRMumbai 400027, Maharashtra
3.38SNRDMumbai Sandhurst Road (4)  07:53-07:53-  2832.8 609mCRMumbai, Maharashtra
3.39MSDMumbai Masjid (4)  07:54-07:54-  2834.0 6010mCRMumbai, Maharashtra
4CSTM•Mumbai CST (18)•  07:55+24---2834.8-10mCRMumbai 400001, Maharashtra
Scroll to Top
Scroll to Bottom